Time;durP1;ratioP1;P1;durP2;ratioP2;P2;SDS_P1;SDS_P2;PMS_P1;PMS_P2;Temp;Humidity;BMP_temperature;BMP_pressure;BME280_temperature;BME280_humidity;BME280_pressure;Samples;Min_cycle;Max_cycle;Signal;HPM_P1;HPM_P2
2023/08/18 00:00:56;;;;;;;6.53;3.35;;;20.50;83.40;;;;;;5012700;28;20467;-63
2023/08/18 00:03:21;;;;;;;4.68;3.50;;;20.40;83.60;;;;;;5014087;28;20056;-63
2023/08/18 00:05:47;;;;;;;4.18;3.55;;;20.40;83.90;;;;;;5013765;28;20041;-63
2023/08/18 00:08:12;;;;;;;3.85;3.45;;;20.30;84.00;;;;;;5012216;28;20030;-63
2023/08/18 00:10:38;;;;;;;4.43;4.03;;;20.30;84.10;;;;;;5012216;28;20115;-63
2023/08/18 00:13:04;;;;;;;6.28;3.83;;;20.30;85.00;;;;;;5013331;28;20060;-63
2023/08/18 00:15:29;;;;;;;5.47;4.05;;;20.20;84.30;;;;;;5011553;28;20630;-63
2023/08/18 00:17:55;;;;;;;6.50;3.50;;;20.10;84.40;;;;;;5011653;28;20052;-62
2023/08/18 00:20:21;;;;;;;4.95;3.90;;;20.10;84.60;;;;;;5011839;28;21368;-63
2023/08/18 00:22:46;;;;;;;4.80;3.65;;;20.00;84.70;;;;;;5012983;28;20041;-63
2023/08/18 00:25:12;;;;;;;5.95;4.43;;;20.00;84.90;;;;;;5009640;28;20584;-63
2023/08/18 00:27:38;;;;;;;8.25;4.10;;;20.00;84.90;;;;;;5012614;28;20041;-63
2023/08/18 00:30:05;;;;;;;4.43;4.03;;;20.00;84.80;;;;;;4998867;28;20038;-63
2023/08/18 00:32:30;;;;;;;6.40;4.13;;;20.00;84.80;;;;;;5009970;28;20038;-62
2023/08/18 00:34:56;;;;;;;5.68;4.22;;;20.00;84.80;;;;;;5013826;28;20029;-63
2023/08/18 00:37:21;;;;;;;7.60;4.28;;;20.00;84.80;;;;;;5012448;28;20096;-63
2023/08/18 00:39:47;;;;;;;5.88;4.10;;;20.00;84.80;;;;;;5009834;28;20123;-63
2023/08/18 00:42:12;;;;;;;5.20;4.07;;;19.90;84.90;;;;;;5013280;28;20029;-63
2023/08/18 00:44:38;;;;;;;5.63;3.70;;;19.90;85.00;;;;;;5012388;28;20084;-63
2023/08/18 00:47:04;;;;;;;6.28;4.35;;;19.90;85.20;;;;;;5011224;28;20022;-62
2023/08/18 00:49:30;;;;;;;3.80;3.47;;;19.90;85.20;;;;;;5013722;28;20037;-64
2023/08/18 00:51:56;;;;;;;4.35;3.92;;;19.90;85.20;;;;;;5011880;28;20139;-63
2023/08/18 00:54:23;;;;;;;6.80;4.15;;;19.90;85.20;;;;;;5010692;28;20056;-63
2023/08/18 00:56:49;;;;;;;4.43;4.03;;;19.90;86.00;;;;;;5012269;28;20034;-64
2023/08/18 00:59:14;;;;;;;4.60;4.15;;;19.90;85.00;;;;;;5012262;28;20528;-63
2023/08/18 01:01:42;;;;;;;4.65;4.15;;;20.00;85.00;;;;;;5007369;28;20038;-63
2023/08/18 01:04:08;;;;;;;5.13;4.63;;;19.90;84.90;;;;;;5012325;28;20061;-63
2023/08/18 01:06:34;;;;;;;5.32;4.57;;;19.90;84.70;;;;;;5012301;28;20079;-64
2023/08/18 01:09:00;;;;;;;5.20;4.43;;;19.90;84.70;;;;;;5009787;28;20087;-63
2023/08/18 01:11:48;;;;;;;6.70;4.15;;;19.90;84.70;;;;;;5007871;28;20060;-63
2023/08/18 01:14:51;;;;;;;5.18;4.40;;;19.80;85.20;;;;;;5013336;28;20072;-63
2023/08/18 01:17:30;;;;;;;7.15;4.47;;;19.80;85.50;;;;;;4898802;29;20055;-63
2023/08/18 01:19:56;;;;;;;5.13;4.10;;;19.80;85.20;;;;;;5000206;28;20116;-64
2023/08/18 01:22:23;;;;;;;5.75;3.75;;;19.80;84.80;;;;;;5011432;28;20056;-63
2023/08/18 01:24:49;;;;;;;6.38;3.97;;;19.80;84.70;;;;;;5012875;28;20248;-63
2023/08/18 01:27:15;;;;;;;6.18;3.88;;;19.80;84.50;;;;;;5012037;28;20038;-63
2023/08/18 01:29:41;;;;;;;6.82;4.50;;;19.80;84.50;;;;;;5004086;28;20061;-63
2023/08/18 01:32:09;;;;;;;5.18;4.68;;;19.80;84.40;;;;;;5014431;28;20509;-62
2023/08/18 01:34:40;;;;;;;5.20;3.95;;;19.80;84.40;;;;;;5008439;28;20045;-64
2023/08/18 01:37:06;;;;;;;5.03;4.28;;;19.70;84.60;;;;;;5013733;28;20042;-62
2023/08/18 01:39:33;;;;;;;6.78;3.80;;;19.70;84.30;;;;;;5006360;28;20038;-63
2023/08/18 01:41:59;;;;;;;4.72;4.25;;;19.70;84.30;;;;;;4999095;28;20038;-63
2023/08/18 01:44:25;;;;;;;4.93;4.43;;;19.70;84.30;;;;;;4999824;28;20428;-63
2023/08/18 01:46:50;;;;;;;6.20;4.72;;;19.70;84.30;;;;;;5006277;28;20034;-63
2023/08/18 01:49:16;;;;;;;6.68;4.32;;;19.60;84.50;;;;;;5020462;28;20417;-63
2023/08/18 01:51:41;;;;;;;4.25;3.67;;;19.50;84.80;;;;;;5020977;28;20061;-63
2023/08/18 01:54:07;;;;;;;5.95;5.00;;;19.50;85.10;;;;;;5017056;28;20044;-63
2023/08/18 01:56:33;;;;;;;7.40;4.97;;;19.40;85.30;;;;;;5011078;28;20046;-63
2023/08/18 01:58:59;;;;;;;7.13;5.65;;;19.30;85.60;;;;;;5011045;28;20046;-63
2023/08/18 02:01:25;;;;;;;8.00;6.55;;;19.30;85.70;;;;;;5009425;28;20073;-63
2023/08/18 02:03:52;;;;;;;7.97;5.63;;;19.30;85.80;;;;;;5011893;28;20513;-63
2023/08/18 02:06:18;;;;;;;7.43;6.18;;;19.20;86.00;;;;;;5014768;28;20042;-63
2023/08/18 02:08:44;;;;;;;8.07;6.30;;;19.10;86.20;;;;;;5015573;28;20053;-62
2023/08/18 02:11:10;;;;;;;8.63;6.60;;;19.10;86.40;;;;;;5012344;28;20029;-62
2023/08/18 02:13:35;;;;;;;9.38;6.45;;;19.10;86.50;;;;;;5014978;28;20038;-63
2023/08/18 02:16:01;;;;;;;7.70;6.22;;;19.00;86.60;;;;;;5016288;28;20037;-62
2023/08/18 02:18:26;;;;;;;7.50;6.45;;;19.00;86.90;;;;;;5012733;28;20030;-63
2023/08/18 02:20:59;;;;;;;7.50;6.57;;;19.00;87.10;;;;;;5013698;28;20042;-63
2023/08/18 02:23:25;;;;;;;8.18;7.07;;;18.90;88.40;;;;;;5015686;28;20037;-63
2023/08/18 02:25:51;;;;;;;7.68;6.72;;;18.90;87.30;;;;;;5016767;28;20084;-63
2023/08/18 02:28:19;;;;;;;7.00;6.22;;;18.90;87.20;;;;;;5015163;28;20026;-63
2023/08/18 02:30:45;;;;;;;9.95;6.93;;;18.90;87.30;;;;;;5014966;28;20041;-64
2023/08/18 02:33:10;;;;;;;8.82;6.63;;;18.90;87.40;;;;;;5010422;28;20045;-63
2023/08/18 02:35:36;;;;;;;8.18;6.47;;;18.80;87.80;;;;;;5013522;28;20495;-63
2023/08/18 02:38:01;;;;;;;7.30;6.60;;;18.80;87.80;;;;;;5013058;28;20030;-63
2023/08/18 02:40:27;;;;;;;7.72;6.78;;;18.90;88.00;;;;;;5011941;28;20576;-62
2023/08/18 02:42:53;;;;;;;8.27;6.70;;;18.90;87.90;;;;;;5013063;28;20041;-62
2023/08/18 02:45:18;;;;;;;8.00;7.20;;;18.90;87.80;;;;;;5015542;28;20052;-63
2023/08/18 02:47:44;;;;;;;7.47;6.00;;;18.90;87.80;;;;;;5013975;28;20567;-61
2023/08/18 02:50:10;;;;;;;8.02;6.07;;;18.90;87.80;;;;;;5013239;28;20068;-62
2023/08/18 02:52:35;;;;;;;7.38;6.18;;;18.90;87.60;;;;;;5012899;28;20053;-63
2023/08/18 02:55:01;;;;;;;7.43;6.47;;;18.90;87.50;;;;;;5008318;28;20029;-62
2023/08/18 02:57:27;;;;;;;7.10;5.93;;;18.90;87.40;;;;;;5011968;28;20505;-64
2023/08/18 02:59:52;;;;;;;8.23;5.72;;;18.90;87.30;;;;;;5013774;28;20378;-63
2023/08/18 03:02:18;;;;;;;6.57;5.55;;;18.90;87.20;;;;;;5011941;28;20306;-64
2023/08/18 03:04:43;;;;;;;7.70;6.90;;;19.00;88.10;;;;;;5014090;28;20037;-62
2023/08/18 03:07:09;;;;;;;11.35;6.80;;;19.00;87.10;;;;;;5014067;28;20033;-63
2023/08/18 03:09:35;;;;;;;6.90;6.30;;;19.00;86.90;;;;;;5011826;28;20034;-63
2023/08/18 03:12:00;;;;;;;7.78;6.95;;;19.00;86.60;;;;;;5009439;28;20404;-64
2023/08/18 03:14:26;;;;;;;6.65;5.95;;;18.90;86.40;;;;;;5013998;28;20072;-63
2023/08/18 03:16:51;;;;;;;7.60;6.22;;;18.90;86.50;;;;;;5006460;28;20434;-63
2023/08/18 03:19:18;;;;;;;6.05;5.55;;;18.90;86.50;;;;;;5011685;28;20489;-63
2023/08/18 03:21:43;;;;;;;7.50;6.13;;;18.80;86.50;;;;;;5012628;28;20037;-63
2023/08/18 03:24:09;;;;;;;7.38;6.68;;;18.80;86.60;;;;;;5010902;28;20041;-63
2023/08/18 03:26:35;;;;;;;8.13;6.47;;;18.80;86.60;;;;;;5013192;28;20041;-62
2023/08/18 03:29:00;;;;;;;8.40;6.85;;;18.80;86.60;;;;;;5011966;28;20048;-63
2023/08/18 03:31:26;;;;;;;8.55;7.13;;;18.80;86.60;;;;;;5012924;28;20080;-64
2023/08/18 03:33:52;;;;;;;7.60;6.90;;;18.80;86.70;;;;;;5010717;28;20108;-63
2023/08/18 03:36:18;;;;;;;7.95;7.15;;;18.80;86.60;;;;;;5012079;28;20073;-63
2023/08/18 03:38:43;;;;;;;7.68;6.88;;;18.80;86.70;;;;;;5013103;28;20124;-63
2023/08/18 03:41:09;;;;;;;10.38;7.45;;;18.80;86.70;;;;;;5010513;28;20036;-63
2023/08/18 03:43:35;;;;;;;9.20;7.20;;;18.80;87.40;;;;;;5010264;28;20045;-63
2023/08/18 03:46:28;;;;;;;9.10;7.50;;;18.80;86.70;;;;;;5010016;28;20052;-63
2023/08/18 03:48:54;;;;;;;8.63;6.97;;;18.80;87.10;;;;;;5013934;28;20294;-63
2023/08/18 03:51:20;;;;;;;11.23;7.93;;;18.80;86.70;;;;;;5012806;28;20531;-63
2023/08/18 03:53:46;;;;;;;12.00;8.45;;;18.80;86.90;;;;;;5007991;28;20038;-62
2023/08/18 03:56:11;;;;;;;12.43;8.80;;;18.80;87.10;;;;;;5009378;28;20045;-63
2023/08/18 03:58:37;;;;;;;9.50;8.35;;;18.80;87.00;;;;;;5014326;28;20034;-63
2023/08/18 04:01:05;;;;;;;23.48;9.05;;;18.80;87.10;;;;;;5012178;28;20042;-63
2023/08/18 04:03:30;;;;;;;53.58;8.98;;;18.80;87.10;;;;;;5010531;28;20046;-63
2023/08/18 04:05:57;;;;;;;57.40;8.00;;;18.80;87.10;;;;;;5011521;28;20136;-63
2023/08/18 04:08:23;;;;;;;34.30;8.30;;;18.90;87.30;;;;;;5007417;28;20450;-62
2023/08/18 04:10:48;;;;;;;35.75;8.43;;;18.80;87.30;;;;;;5009144;28;20042;-63
2023/08/18 04:13:14;;;;;;;64.43;7.93;;;18.80;87.40;;;;;;5006334;28;20622;-62
2023/08/18 04:15:39;;;;;;;30.45;7.43;;;18.80;87.60;;;;;;5011500;28;20036;-63
2023/08/18 04:18:07;;;;;;;24.30;7.70;;;18.80;87.60;;;;;;5008976;28;20117;-61
2023/08/18 04:20:33;;;;;;;34.58;6.97;;;18.80;87.80;;;;;;5008439;28;20260;-63
2023/08/18 04:22:58;;;;;;;31.45;6.53;;;18.80;88.00;;;;;;5006000;28;20050;-63
2023/08/18 04:25:24;;;;;;;35.15;6.60;;;18.80;87.90;;;;;;5012395;28;20042;-62
2023/08/18 04:27:49;;;;;;;18.13;6.47;;;18.80;87.90;;;;;;5009017;28;20125;-63
2023/08/18 04:30:15;;;;;;;31.80;6.07;;;18.70;88.50;;;;;;5008116;28;20061;-62
2023/08/18 04:32:41;;;;;;;26.15;6.60;;;18.70;88.10;;;;;;5007385;28;20056;-62
2023/08/18 04:35:07;;;;;;;34.58;6.65;;;18.60;88.20;;;;;;5009078;28;20030;-63
2023/08/18 04:37:32;;;;;;;47.40;8.15;;;18.50;88.30;;;;;;5009176;28;20044;-63
2023/08/18 04:39:58;;;;;;;19.58;6.05;;;18.50;88.40;;;;;;5008108;28;20042;-63
2023/08/18 04:42:23;;;;;;;19.48;6.82;;;18.50;88.60;;;;;;5008362;28;20030;-62
2023/08/18 04:44:50;;;;;;;6.93;6.30;;;18.50;89.70;;;;;;5006309;28;20241;-63
2023/08/18 04:47:16;;;;;;;17.17;7.18;;;18.40;89.20;;;;;;5010354;28;20030;-63
2023/08/18 04:49:41;;;;;;;9.68;6.80;;;18.50;89.40;;;;;;5011554;28;20096;-62
2023/08/18 04:52:10;;;;;;;8.05;6.80;;;18.50;89.60;;;;;;5005880;28;20401;-63
2023/08/18 04:54:35;;;;;;;20.90;7.22;;;18.50;89.50;;;;;;5009931;28;20060;-62
2023/08/18 04:57:03;;;;;;;13.60;6.85;;;18.50;89.60;;;;;;5010119;28;20569;-62
2023/08/18 04:59:29;;;;;;;9.73;6.35;;;18.50;89.50;;;;;;5011092;28;20044;-62
2023/08/18 05:01:55;;;;;;;22.67;6.43;;;18.50;89.40;;;;;;5011396;28;20386;-63
2023/08/18 05:04:21;;;;;;;15.18;6.32;;;18.50;89.60;;;;;;5005945;28;21538;-63
2023/08/18 05:06:47;;;;;;;7.95;5.85;;;18.60;89.50;;;;;;5005402;28;20044;-61
2023/08/18 05:09:13;;;;;;;41.92;6.50;;;18.60;89.30;;;;;;5006128;28;20037;-63
2023/08/18 05:11:38;;;;;;;13.82;5.25;;;18.60;89.10;;;;;;5003531;28;20492;-62
2023/08/18 05:14:04;;;;;;;8.80;6.15;;;18.60;88.80;;;;;;5008745;28;20045;-63
2023/08/18 05:16:29;;;;;;;14.43;5.45;;;18.60;89.00;;;;;;5004410;28;20262;-63
2023/08/18 05:18:55;;;;;;;11.20;5.60;;;18.60;89.10;;;;;;5010125;28;20113;-62
2023/08/18 05:21:21;;;;;;;11.07;5.65;;;18.60;89.20;;;;;;5012016;28;20033;-61
2023/08/18 05:23:47;;;;;;;6.47;5.20;;;18.60;89.30;;;;;;5011872;28;20033;-62
2023/08/18 05:26:13;;;;;;;11.80;6.03;;;18.60;89.20;;;;;;5012868;28;20045;-63
2023/08/18 05:28:39;;;;;;;6.95;5.90;;;18.60;89.20;;;;;;5013029;28;20039;-64
2023/08/18 05:31:07;;;;;;;8.77;6.22;;;18.60;89.30;;;;;;5011208;28;20042;-63
2023/08/18 05:33:32;;;;;;;13.90;6.43;;;18.60;89.50;;;;;;5015102;28;20517;-62
2023/08/18 05:35:59;;;;;;;9.70;5.97;;;18.70;89.50;;;;;;5015269;28;20076;-62
2023/08/18 05:38:25;;;;;;;18.33;5.90;;;18.70;89.50;;;;;;5014557;28;20033;-63
2023/08/18 05:40:50;;;;;;;6.93;5.93;;;18.70;89.50;;;;;;5012297;28;20034;-61
2023/08/18 05:43:18;;;;;;;5.85;5.35;;;18.70;89.50;;;;;;5017053;28;20408;-63
2023/08/18 05:45:46;;;;;;;6.40;5.80;;;18.80;89.50;;;;;;5014047;28;20050;-63
2023/08/18 05:48:12;;;;;;;7.63;5.85;;;18.80;89.50;;;;;;5017301;28;20473;-62
2023/08/18 05:50:38;;;;;;;6.60;5.72;;;18.80;89.60;;;;;;5017737;28;20044;-62
2023/08/18 05:53:04;;;;;;;5.78;5.20;;;18.90;89.60;;;;;;5016664;28;20044;-62
2023/08/18 05:55:30;;;;;;;7.63;5.78;;;18.90;89.50;;;;;;5012056;28;20061;-63
2023/08/18 05:58:01;;;;;;;18.83;5.82;;;18.90;89.40;;;;;;5009835;28;20128;-63
2023/08/18 06:00:28;;;;;;;7.45;6.07;;;18.90;89.40;;;;;;5010581;28;20038;-61
2023/08/18 06:02:54;;;;;;;39.97;6.15;;;18.90;89.20;;;;;;5011988;28;20462;-62
2023/08/18 06:05:20;;;;;;;7.25;5.72;;;18.90;89.20;;;;;;5010443;28;20042;-63
2023/08/18 06:07:45;;;;;;;11.52;5.60;;;18.90;89.30;;;;;;5008289;28;20040;-62
2023/08/18 06:10:11;;;;;;;16.42;5.85;;;19.00;89.60;;;;;;5008525;28;20119;-61
2023/08/18 06:12:37;;;;;;;22.50;5.78;;;19.00;89.80;;;;;;5006694;28;20057;-62
2023/08/18 06:15:05;;;;;;;12.65;4.82;;;19.00;89.80;;;;;;5013635;28;20041;-63
2023/08/18 06:17:31;;;;;;;8.77;4.88;;;19.00;89.80;;;;;;5017783;28;20042;-63
2023/08/18 06:19:57;;;;;;;11.23;4.80;;;19.10;89.70;;;;;;5017022;28;20501;-63
2023/08/18 06:22:23;;;;;;;10.55;5.28;;;19.10;89.90;;;;;;5016875;28;20104;-63
2023/08/18 06:24:49;;;;;;;8.25;5.70;;;19.10;89.90;;;;;;4995795;28;20038;-63
2023/08/18 06:27:14;;;;;;;6.35;5.45;;;19.10;89.90;;;;;;4994710;28;20283;-61
2023/08/18 06:29:40;;;;;;;8.45;5.63;;;19.10;90.00;;;;;;5004084;28;20117;-63
2023/08/18 06:32:05;;;;;;;14.02;6.05;;;19.20;90.10;;;;;;5012003;28;20505;-63
2023/08/18 06:34:31;;;;;;;8.35;7.25;;;19.20;90.00;;;;;;5006744;28;20046;-63
2023/08/18 06:36:56;;;;;;;14.85;6.78;;;19.30;90.10;;;;;;5015572;28;20038;-63
2023/08/18 06:39:22;;;;;;;13.10;5.97;;;19.30;90.10;;;;;;5018384;28;20042;-62
2023/08/18 06:41:47;;;;;;;7.10;5.45;;;19.30;90.10;;;;;;5017967;28;20038;-64
2023/08/18 06:44:13;;;;;;;5.78;5.07;;;19.30;90.10;;;;;;5014596;28;20044;-63
2023/08/18 06:46:39;;;;;;;9.65;5.65;;;19.40;90.20;;;;;;5011970;28;20076;-63
2023/08/18 06:49:04;;;;;;;11.95;5.68;;;19.30;90.20;;;;;;5004869;28;20527;-62
2023/08/18 06:51:30;;;;;;;5.68;5.10;;;19.40;90.20;;;;;;5012023;28;20041;-63
2023/08/18 06:53:56;;;;;;;5.25;4.80;;;19.40;90.20;;;;;;5013179;28;20033;-63
2023/08/18 06:56:21;;;;;;;5.68;4.63;;;19.50;90.30;;;;;;4997469;28;20045;-63
2023/08/18 06:58:47;;;;;;;5.00;4.60;;;19.50;90.20;;;;;;5001158;28;20091;-63
2023/08/18 07:01:13;;;;;;;4.97;4.57;;;19.50;90.00;;;;;;5008881;28;20086;-64
2023/08/18 07:03:38;;;;;;;4.70;4.40;;;19.60;90.10;;;;;;5002610;28;20041;-63
2023/08/18 07:06:04;;;;;;;5.18;4.63;;;19.60;90.10;;;;;;5009932;28;20640;-63
2023/08/18 07:08:30;;;;;;;4.63;4.30;;;19.60;90.00;;;;;;5002601;28;20519;-63
2023/08/18 07:10:56;;;;;;;4.53;4.13;;;19.70;90.00;;;;;;5003722;28;20362;-64
2023/08/18 07:13:21;;;;;;;4.82;4.43;;;19.70;90.00;;;;;;5001999;28;20501;-62
2023/08/18 07:15:50;;;;;;;4.78;4.38;;;19.70;90.00;;;;;;5001215;28;20386;-63
2023/08/18 07:18:19;;;;;;;4.95;4.47;;;19.70;90.00;;;;;;5003213;28;20459;-62
2023/08/18 07:20:45;;;;;;;4.78;4.20;;;19.80;90.00;;;;;;5008230;28;20042;-62
2023/08/18 07:23:11;;;;;;;5.32;4.82;;;19.90;90.10;;;;;;5005122;28;20445;-61
2023/08/18 07:25:39;;;;;;;4.70;4.30;;;19.90;90.00;;;;;;5009900;28;20045;-62
2023/08/18 07:28:05;;;;;;;4.40;4.10;;;20.00;90.00;;;;;;5006315;28;20286;-63
2023/08/18 07:30:31;;;;;;;4.68;4.28;;;20.00;89.90;;;;;;4997082;28;20789;-62
2023/08/18 07:32:56;;;;;;;4.78;4.38;;;20.10;89.90;;;;;;5002075;28;20042;-61
2023/08/18 07:35:23;;;;;;;5.25;4.43;;;20.10;89.80;;;;;;5009838;28;20102;-63
2023/08/18 07:37:48;;;;;;;5.32;4.32;;;20.20;89.90;;;;;;5005605;28;20497;-63
2023/08/18 07:40:14;;;;;;;4.22;3.90;;;20.30;89.90;;;;;;4996835;28;20048;-61
2023/08/18 07:42:40;;;;;;;4.65;4.25;;;20.30;89.80;;;;;;5010489;28;20038;-62
2023/08/18 07:45:07;;;;;;;4.63;4.22;;;20.40;89.80;;;;;;5005962;28;20041;-62
2023/08/18 07:47:38;;;;;;;4.43;4.13;;;20.50;89.70;;;;;;5001925;28;20046;-62
2023/08/18 07:50:09;;;;;;;4.95;4.25;;;20.60;89.70;;;;;;4995391;28;20459;-62
2023/08/18 07:52:34;;;;;;;4.38;3.95;;;20.60;89.70;;;;;;5006573;28;20065;-61
2023/08/18 07:55:04;;;;;;;4.88;4.00;;;20.70;89.60;;;;;;5007071;28;20121;-62
2023/08/18 07:57:30;;;;;;;4.80;3.95;;;20.80;89.50;;;;;;5003963;28;20036;-62
2023/08/18 07:59:56;;;;;;;7.05;4.10;;;20.90;89.50;;;;;;5008748;28;20413;-63
2023/08/18 08:02:22;;;;;;;4.57;3.90;;;21.00;89.40;;;;;;4996069;28;20049;-63
2023/08/18 08:04:47;;;;;;;4.03;3.70;;;21.10;89.50;;;;;;5006559;28;20042;-63
2023/08/18 08:07:13;;;;;;;3.85;3.55;;;21.20;89.60;;;;;;5012343;28;20034;-63
2023/08/18 08:09:39;;;;;;;4.65;3.55;;;21.20;89.30;;;;;;4993217;28;21782;-62
2023/08/18 08:12:05;;;;;;;4.40;3.75;;;21.40;89.40;;;;;;4997602;28;20068;-62
2023/08/18 08:14:31;;;;;;;6.07;3.63;;;21.50;89.00;;;;;;4992577;28;20502;-63
2023/08/18 08:16:56;;;;;;;5.15;3.38;;;21.50;88.90;;;;;;5000869;28;20034;-63
2023/08/18 08:19:22;;;;;;;3.97;3.45;;;21.70;88.60;;;;;;5008438;28;20121;-63
2023/08/18 08:21:48;;;;;;;3.20;2.90;;;21.70;88.20;;;;;;5002842;28;20034;-64
2023/08/18 08:24:13;;;;;;;3.70;2.88;;;21.80;88.00;;;;;;4984012;28;20034;-62
2023/08/18 08:26:39;;;;;;;4.05;2.65;;;21.90;87.10;;;;;;5005547;28;20073;-63
2023/08/18 08:29:05;;;;;;;3.22;2.28;;;22.10;86.60;;;;;;5002739;28;20405;-61
2023/08/18 08:31:31;;;;;;;4.40;2.47;;;22.10;86.00;;;;;;5004766;28;20528;-63
2023/08/18 08:33:57;;;;;;;3.13;2.17;;;22.20;85.00;;;;;;4997948;28;20069;-63
2023/08/18 08:36:23;;;;;;;2.50;2.20;;;22.30;84.60;;;;;;5009564;28;20069;-62
2023/08/18 08:38:48;;;;;;;2.35;2.15;;;22.40;84.40;;;;;;4996905;28;20513;-63
2023/08/18 08:41:14;;;;;;;4.78;2.35;;;22.50;84.30;;;;;;5006828;28;20037;-63
2023/08/18 08:43:40;;;;;;;3.38;2.42;;;22.60;84.10;;;;;;4998752;28;20030;-60
2023/08/18 08:46:07;;;;;;;2.67;2.25;;;22.60;83.70;;;;;;5004646;28;20092;-62
2023/08/18 08:48:38;;;;;;;2.55;2.10;;;22.70;82.90;;;;;;5003017;28;20529;-63
2023/08/18 08:51:04;;;;;;;3.00;2.00;;;22.80;82.40;;;;;;4983728;28;20069;-63
2023/08/18 08:53:39;;;;;;;2.40;1.85;;;22.90;82.70;;;;;;4993342;28;20037;-58
2023/08/18 08:56:07;;;;;;;2.35;2.05;;;23.00;81.90;;;;;;5008212;28;20070;-62
2023/08/18 08:58:34;;;;;;;4.60;2.33;;;23.10;81.70;;;;;;5009448;28;20065;-64
2023/08/18 09:01:05;;;;;;;3.58;2.20;;;23.20;81.40;;;;;;4991524;28;20603;-61
2023/08/18 09:03:30;;;;;;;2.08;1.70;;;23.20;81.10;;;;;;4992820;28;20111;-61
2023/08/18 09:05:56;;;;;;;2.28;2.10;;;23.30;81.50;;;;;;4999276;28;20029;-62
2023/08/18 09:08:22;;;;;;;3.83;2.13;;;23.40;81.50;;;;;;5005063;28;20022;-63
2023/08/18 09:10:48;;;;;;;2.15;1.98;;;23.50;81.30;;;;;;5003146;28;20041;-62
2023/08/18 09:13:13;;;;;;;2.65;2.20;;;23.60;81.60;;;;;;5002564;28;20112;-63
2023/08/18 09:15:44;;;;;;;2.33;2.10;;;23.70;81.30;;;;;;5004931;28;20073;-63
2023/08/18 09:18:11;;;;;;;2.40;2.20;;;23.80;81.40;;;;;;5007525;28;20041;-61
2023/08/18 09:20:37;;;;;;;3.33;1.95;;;23.90;81.20;;;;;;5006993;28;20041;-63
2023/08/18 09:23:03;;;;;;;2.53;2.00;;;24.10;80.60;;;;;;4999154;28;20042;-61
2023/08/18 09:25:32;;;;;;;2.08;1.88;;;24.20;81.20;;;;;;5004162;28;20497;-63
2023/08/18 09:27:58;;;;;;;2.63;1.85;;;24.30;80.90;;;;;;4995135;28;20045;-62
2023/08/18 09:30:24;;;;;;;2.85;1.95;;;24.40;79.80;;;;;;5002715;28;20068;-62
2023/08/18 09:32:50;;;;;;;4.35;1.90;;;24.40;78.60;;;;;;5008817;28;20030;-63
2023/08/18 09:35:21;;;;;;;2.40;2.15;;;24.60;78.60;;;;;;5010291;28;20034;-63
2023/08/18 09:37:57;;;;;;;3.00;1.95;;;24.70;77.90;;;;;;4994240;28;20580;-62
2023/08/18 09:40:23;;;;;;;2.42;1.80;;;24.70;76.90;;;;;;4992505;28;20041;-63
2023/08/18 09:42:48;;;;;;;2.53;2.20;;;24.80;78.00;;;;;;5002195;28;20897;-63
2023/08/18 09:45:14;;;;;;;4.97;2.38;;;25.00;77.50;;;;;;5008942;28;20030;-63
2023/08/18 09:47:42;;;;;;;3.45;2.33;;;25.00;77.30;;;;;;5009381;28;20397;-63
2023/08/18 09:50:10;;;;;;;2.15;1.90;;;25.10;76.80;;;;;;5007333;28;20038;-62
2023/08/18 09:52:38;;;;;;;3.35;2.08;;;25.20;75.50;;;;;;5010578;28;20040;-63
2023/08/18 09:55:23;;;;;;;2.88;1.92;;;25.30;75.90;;;;;;5012425;28;20034;-63
2023/08/18 09:58:27;;;;;;;1.77;1.67;;;25.40;73.90;;;;;;5009817;28;20502;-62
2023/08/18 10:00:57;;;;;;;4.45;1.63;;;25.50;74.60;;;;;;5012287;28;20029;-62
2023/08/18 10:03:28;;;;;;;1.60;1.23;;;25.60;74.50;;;;;;5010398;28;20471;-63
2023/08/18 10:05:55;;;;;;;1.48;1.35;;;25.70;72.90;;;;;;5011964;28;20038;-62
2023/08/18 10:08:22;;;;;;;1.75;1.30;;;25.80;71.60;;;;;;5015039;28;20456;-62
2023/08/18 10:10:50;;;;;;;2.75;1.50;;;26.00;72.00;;;;;;5015705;28;20065;-63
2023/08/18 10:13:16;;;;;;;1.75;1.52;;;26.00;71.70;;;;;;5020082;28;20033;-63
2023/08/18 10:15:43;;;;;;;2.72;1.30;;;26.10;71.50;;;;;;5018730;28;20425;-61
2023/08/18 10:18:11;;;;;;;2.70;1.52;;;26.20;71.40;;;;;;5019141;28;20034;-62
2023/08/18 10:20:53;;;;;;;2.83;1.30;;;26.30;69.80;;;;;;5000887;28;20045;-62
2023/08/18 10:23:22;;;;;;;3.95;1.45;;;26.40;68.50;;;;;;5017980;28;20057;-60
2023/08/18 10:25:52;;;;;;;2.30;1.30;;;26.50;70.00;;;;;;5017335;28;20523;-61
2023/08/18 10:28:22;;;;;;;2.55;1.40;;;26.60;69.70;;;;;;5017282;28;20037;-62
2023/08/18 10:30:56;;;;;;;1.92;1.38;;;26.60;69.80;;;;;;5015067;28;20033;-62
2023/08/18 10:33:32;;;;;;;1.88;1.60;;;26.70;68.70;;;;;;5018000;28;20504;-63
2023/08/18 10:36:01;;;;;;;1.83;1.38;;;26.80;69.90;;;;;;5016484;28;20132;-59
2023/08/18 10:38:28;;;;;;;2.88;1.20;;;26.90;69.40;;;;;;5016630;28;20037;-62
2023/08/18 10:40:53;;;;;;;2.15;1.50;;;27.00;69.20;;;;;;5016242;28;20083;-62
2023/08/18 10:43:19;;;;;;;3.88;1.73;;;27.10;69.20;;;;;;5017151;28;20042;-62
2023/08/18 10:45:52;;;;;;;2.75;1.40;;;27.10;68.60;;;;;;5015579;28;20038;-62
2023/08/18 10:48:18;;;;;;;3.47;1.55;;;27.20;65.40;;;;;;5015980;28;20523;-61
2023/08/18 10:50:47;;;;;;;2.33;1.50;;;27.20;66.50;;;;;;4998361;28;20069;-62
2023/08/18 10:53:14;;;;;;;2.25;1.38;;;27.30;66.20;;;;;;5015746;28;20044;-62
2023/08/18 10:55:45;;;;;;;1.48;1.35;;;27.30;66.50;;;;;;5006901;28;20083;-63
2023/08/18 10:58:12;;;;;;;2.22;1.55;;;27.40;66.60;;;;;;5011585;28;20037;-62
2023/08/18 11:00:39;;;;;;;1.58;1.48;;;27.40;66.50;;;;;;5015534;28;20501;-62
2023/08/18 11:03:07;;;;;;;2.13;1.30;;;27.50;66.40;;;;;;5013157;28;20044;-62
2023/08/18 11:05:33;;;;;;;1.95;1.35;;;27.60;66.80;;;;;;5016278;28;20032;-62
2023/08/18 11:08:00;;;;;;;2.38;1.40;;;27.60;66.10;;;;;;4998987;28;20025;-63
2023/08/18 11:10:26;;;;;;;1.75;1.40;;;27.70;66.30;;;;;;5011030;28;20476;-62
2023/08/18 11:12:56;;;;;;;3.03;1.27;;;27.70;66.20;;;;;;5014575;28;20313;-63
2023/08/18 11:15:23;;;;;;;2.13;1.20;;;27.80;66.10;;;;;;5014368;28;20030;-63
2023/08/18 11:17:49;;;;;;;2.53;1.45;;;27.90;65.80;;;;;;5016922;28;20497;-63
2023/08/18 11:20:16;;;;;;;1.60;1.45;;;27.90;65.70;;;;;;5015292;28;20041;-62
2023/08/18 11:22:44;;;;;;;1.55;1.30;;;28.00;65.30;;;;;;5014367;28;20037;-63
2023/08/18 11:25:14;;;;;;;1.52;1.30;;;28.10;65.00;;;;;;5015377;28;20053;-62
2023/08/18 11:27:41;;;;;;;2.17;1.30;;;28.10;65.00;;;;;;5015952;28;20037;-62
2023/08/18 11:30:09;;;;;;;1.67;1.30;;;28.20;64.60;;;;;;5014270;28;20054;-60
2023/08/18 11:32:35;;;;;;;3.88;1.60;;;28.30;64.00;;;;;;5015899;28;20033;-62
2023/08/18 11:35:01;;;;;;;1.60;1.35;;;28.30;66.00;;;;;;5013119;28;20040;-62
2023/08/18 11:37:28;;;;;;;2.42;1.35;;;28.40;64.90;;;;;;5016536;28;20030;-61
2023/08/18 11:39:53;;;;;;;4.80;1.55;;;28.40;65.10;;;;;;5003936;28;20027;-62
2023/08/18 11:42:20;;;;;;;1.92;1.50;;;28.50;64.20;;;;;;4993492;28;20030;-62
2023/08/18 11:44:51;;;;;;;1.80;1.27;;;28.50;64.00;;;;;;4996247;28;20516;-64
2023/08/18 11:47:18;;;;;;;2.08;1.30;;;28.60;63.60;;;;;;5015302;28;20037;-63
2023/08/18 11:49:45;;;;;;;1.58;1.35;;;28.60;63.70;;;;;;5013757;28;20057;-63
2023/08/18 11:52:10;;;;;;;3.08;1.25;;;28.70;62.80;;;;;;5010875;28;20046;-63
2023/08/18 11:54:38;;;;;;;2.17;1.52;;;28.80;63.10;;;;;;5008911;28;20063;-62
2023/08/18 11:57:05;;;;;;;2.65;1.42;;;28.80;62.20;;;;;;5011310;28;20062;-63
2023/08/18 11:59:32;;;;;;;1.52;1.23;;;28.80;63.60;;;;;;5012210;28;20046;-63
2023/08/18 12:02:04;;;;;;;2.75;1.40;;;28.90;62.00;;;;;;5014361;28;20045;-63
2023/08/18 12:04:34;;;;;;;3.42;1.50;;;28.90;61.70;;;;;;5012782;28;20045;-63
2023/08/18 12:07:00;;;;;;;1.63;1.50;;;29.00;61.90;;;;;;5012603;28;20025;-63
2023/08/18 12:09:26;;;;;;;3.53;1.30;;;29.00;62.00;;;;;;5011327;28;20132;-63
2023/08/18 12:11:52;;;;;;;3.38;1.40;;;29.10;61.40;;;;;;5011009;28;20033;-62
2023/08/18 12:14:18;;;;;;;2.00;1.30;;;29.20;61.70;;;;;;5013394;28;20026;-63
2023/08/18 12:16:47;;;;;;;2.22;1.30;;;29.20;61.30;;;;;;5015046;28;20045;-63
2023/08/18 12:19:12;;;;;;;1.75;1.27;;;29.30;61.00;;;;;;4996500;28;20457;-61
2023/08/18 12:21:38;;;;;;;1.35;1.23;;;29.30;61.10;;;;;;5014550;28;20123;-63
2023/08/18 12:24:07;;;;;;;2.42;1.35;;;29.30;60.70;;;;;;5012261;28;20033;-62
2023/08/18 12:26:34;;;;;;;1.67;1.30;;;29.40;59.70;;;;;;5015652;28;20082;-63
2023/08/18 12:29:03;;;;;;;2.55;1.20;;;29.40;59.40;;;;;;5010697;28;20385;-61
2023/08/18 12:31:30;;;;;;;1.58;1.48;;;29.40;59.70;;;;;;5013851;28;20030;-63
2023/08/18 12:33:55;;;;;;;2.28;1.40;;;29.50;60.00;;;;;;5013918;28;20552;-62
2023/08/18 12:36:21;;;;;;;2.58;1.30;;;29.40;59.80;;;;;;5013056;28;20034;-63
2023/08/18 12:38:46;;;;;;;2.03;1.40;;;29.40;59.80;;;;;;5012011;28;20037;-61
2023/08/18 12:41:14;;;;;;;2.40;1.50;;;29.50;59.80;;;;;;5012718;28;20029;-63
2023/08/18 12:43:40;;;;;;;1.80;1.30;;;29.50;59.70;;;;;;5006533;28;20408;-63